createdAt,value
2019-06-20T00:01:18.112Z,47.50
2019-06-20T00:03:47.950Z,47.50
2019-06-20T00:06:17.946Z,47.60
2019-06-20T00:08:47.836Z,47.90
2019-06-20T00:11:17.605Z,47.80
2019-06-20T00:13:47.370Z,47.90
2019-06-20T00:16:18.430Z,47.90
2019-06-20T00:18:48.196Z,48.30
2019-06-20T00:21:18.049Z,48.30
2019-06-20T00:23:47.966Z,48.60
2019-06-20T00:26:17.911Z,48.40
2019-06-20T00:28:47.696Z,48.30
2019-06-20T00:31:17.504Z,48.20
2019-06-20T00:33:47.294Z,48.40
2019-06-20T00:36:17.091Z,48.40
2019-06-20T00:38:47.069Z,48.50
2019-06-20T00:41:17.306Z,48.90
2019-06-20T00:43:47.082Z,49.00
2019-06-20T00:46:16.949Z,49.00
2019-06-20T00:48:46.973Z,49.10
2019-06-20T00:51:16.874Z,49.40
2019-06-20T00:53:46.656Z,49.40
2019-06-20T00:56:16.539Z,49.70
2019-06-20T00:58:46.443Z,49.70
2019-06-20T01:01:16.643Z,50.00
2019-06-20T01:03:46.777Z,49.90
2019-06-20T01:06:16.590Z,50.00
2019-06-20T01:08:47.446Z,50.00
2019-06-20T01:11:17.259Z,50.10
2019-06-20T01:13:47.069Z,50.20
2019-06-20T01:16:16.821Z,50.20
2019-06-20T01:18:46.872Z,50.30
2019-06-20T01:21:17.328Z,50.50
2019-06-20T01:23:47.906Z,50.40
2019-06-20T01:26:17.846Z,50.70
2019-06-20T01:28:47.613Z,50.90
2019-06-20T01:31:17.763Z,50.90
2019-06-20T01:33:47.549Z,51.00
2019-06-20T01:36:17.450Z,51.10
2019-06-20T01:38:47.254Z,50.80
2019-06-20T01:41:17.026Z,51.80
2019-06-20T01:43:50.919Z,51.80
2019-06-20T01:46:18.334Z,51.80
2019-06-20T01:48:48.114Z,51.60
2019-06-20T01:51:17.891Z,51.60
2019-06-20T01:53:47.666Z,51.70
2019-06-20T01:56:18.531Z,51.70
2019-06-20T01:58:49.170Z,51.60
2019-06-20T02:01:19.017Z,51.60
2019-06-20T02:03:48.821Z,51.50
2019-06-20T02:06:18.826Z,51.50
2019-06-20T02:08:49.077Z,51.60
2019-06-20T02:11:18.873Z,51.50
2019-06-20T02:13:48.723Z,51.20
2019-06-20T02:16:19.810Z,51.10
2019-06-20T02:18:49.840Z,51.10
2019-06-20T02:21:19.627Z,51.10
2019-06-20T02:23:49.442Z,51.00
2019-06-20T02:26:19.307Z,51.10
2019-06-20T02:28:49.191Z,51.10
2019-06-20T02:31:18.981Z,51.20
2019-06-20T02:33:48.772Z,51.40
2019-06-20T02:36:18.568Z,51.40
2019-06-20T02:38:48.381Z,51.60
2019-06-20T02:41:18.141Z,51.30
2019-06-20T02:43:47.918Z,51.70
2019-06-20T02:46:17.805Z,51.80
2019-06-20T02:48:48.764Z,51.80
2019-06-20T02:51:21.651Z,52.00
2019-06-20T02:53:52.705Z,52.00
2019-06-20T02:56:22.722Z,52.40
2019-06-20T02:58:52.640Z,53.20
2019-06-20T03:01:22.438Z,54.00
2019-06-20T03:03:52.206Z,54.80
2019-06-20T03:06:22.074Z,56.20
2019-06-20T03:08:52.094Z,56.50
2019-06-20T03:11:22.018Z,57.50
2019-06-20T03:13:51.807Z,57.90
2019-06-20T03:16:21.605Z,59.20
2019-06-20T03:18:51.379Z,60.30
2019-06-20T03:21:21.151Z,60.50
2019-06-20T03:23:51.179Z,62.40
2019-06-20T03:26:21.199Z,62.60
2019-06-20T03:28:50.987Z,63.50
2019-06-20T03:31:21.094Z,63.80
2019-06-20T03:33:50.863Z,64.90
2019-06-20T03:36:20.637Z,65.10
2019-06-20T03:38:50.574Z,65.20
2019-06-20T03:41:20.342Z,66.00
2019-06-20T03:43:50.110Z,66.50
2019-06-20T03:46:19.914Z,66.50
2019-06-20T03:48:50.794Z,67.20
2019-06-20T03:51:20.614Z,68.00
2019-06-20T03:53:50.489Z,68.30
2019-06-20T03:56:22.869Z,68.60
2019-06-20T03:58:52.661Z,69.20
2019-06-20T04:01:22.435Z,69.20
2019-06-20T04:03:52.209Z,70.00
2019-06-20T04:06:21.998Z,70.40
2019-06-20T04:08:51.765Z,71.30
2019-06-20T04:11:21.558Z,71.60
2019-06-20T04:13:51.713Z,72.20
2019-06-20T04:16:21.581Z,72.70
2019-06-20T04:18:51.686Z,72.20
2019-06-20T04:21:21.583Z,72.50
2019-06-20T04:23:52.106Z,73.50
2019-06-20T04:26:21.967Z,74.20
2019-06-20T04:28:51.807Z,73.80
2019-06-20T04:31:21.651Z,73.80
2019-06-20T04:33:51.713Z,74.60
2019-06-20T04:36:21.544Z,75.00
2019-06-20T04:38:51.436Z,74.80
2019-06-20T04:41:21.250Z,74.50
2019-06-20T04:43:51.129Z,74.40
2019-06-20T04:46:22.714Z,74.80
2019-06-20T04:48:52.486Z,75.10
2019-06-20T04:51:22.285Z,75.20
2019-06-20T04:53:52.074Z,75.30
2019-06-20T04:56:22.065Z,75.30
2019-06-20T04:58:51.885Z,75.50
2019-06-20T05:01:21.806Z,74.00
2019-06-20T05:03:51.775Z,74.00
2019-06-20T05:06:21.774Z,74.90
2019-06-20T05:08:51.665Z,75.10
2019-06-20T05:11:21.685Z,75.10
2019-06-20T05:13:51.622Z,75.60
2019-06-20T05:16:21.419Z,75.30
2019-06-20T05:18:51.425Z,75.60
2019-06-20T05:21:22.458Z,75.30
2019-06-20T05:23:52.424Z,75.00
2019-06-20T05:26:22.242Z,75.90
2019-06-20T05:28:52.005Z,75.50
2019-06-20T05:31:21.850Z,74.90
2019-06-20T05:33:51.669Z,74.50
2019-06-20T05:36:21.493Z,75.60
2019-06-20T05:38:51.501Z,75.00
2019-06-20T05:41:33.781Z,74.80
2019-06-20T05:44:03.567Z,73.90
2019-06-20T05:46:33.337Z,71.40
2019-06-20T05:49:03.141Z,69.60
2019-06-20T05:51:33.166Z,67.80
2019-06-20T05:54:03.083Z,65.00
2019-06-20T05:56:32.930Z,62.20
2019-06-20T05:59:02.760Z,60.20
2019-06-20T06:01:32.742Z,57.60
2019-06-20T06:04:02.519Z,56.30
2019-06-20T06:06:32.599Z,55.90
2019-06-20T06:09:02.551Z,53.90
2019-06-20T06:11:32.626Z,52.60
2019-06-20T06:14:02.567Z,52.40
2019-06-20T06:16:33.557Z,50.60
2019-06-20T06:19:03.391Z,48.80
2019-06-20T06:21:33.187Z,48.40
2019-06-20T06:24:03.140Z,48.10
2019-06-20T06:26:32.914Z,47.10
2019-06-20T06:29:02.698Z,46.00
2019-06-20T06:31:32.521Z,44.80
2019-06-20T06:34:02.306Z,43.80
2019-06-20T06:36:32.733Z,44.10
2019-06-20T06:39:05.106Z,43.90
2019-06-20T06:41:35.210Z,43.30
2019-06-20T06:44:08.357Z,42.10
2019-06-20T06:46:45.024Z,41.20
2019-06-20T06:49:08.758Z,41.20
2019-06-20T06:51:38.554Z,40.80
2019-06-20T06:54:09.105Z,40.60
2019-06-20T06:56:38.881Z,41.10
2019-06-20T06:59:08.867Z,39.90
2019-06-20T07:01:38.674Z,39.20
2019-06-20T07:04:08.582Z,39.50
2019-06-20T07:06:38.350Z,38.80
2019-06-20T07:09:09.264Z,39.00
2019-06-20T07:11:39.350Z,39.00
2019-06-20T07:14:09.349Z,39.30
2019-06-20T07:16:39.851Z,40.10
2019-06-20T07:19:09.753Z,40.00
2019-06-20T07:21:39.550Z,38.60
2019-06-20T07:24:09.306Z,38.90
2019-06-20T07:26:39.387Z,38.20
2019-06-20T07:29:09.225Z,38.40
2019-06-20T07:31:39.177Z,38.80
2019-06-20T07:34:08.954Z,38.40
2019-06-20T07:36:38.738Z,37.30
2019-06-20T07:39:09.490Z,36.60
2019-06-20T07:41:39.405Z,36.40
2019-06-20T07:44:09.238Z,36.90
2019-06-20T07:46:39.067Z,37.40
2019-06-20T07:49:09.848Z,37.10
2019-06-20T07:51:39.613Z,37.70
2019-06-20T07:54:09.389Z,38.50
2019-06-20T07:56:39.332Z,39.30
2019-06-20T07:59:09.134Z,39.90
2019-06-20T08:01:38.961Z,40.60
2019-06-20T08:04:08.880Z,41.80
2019-06-20T08:06:38.655Z,42.30
2019-06-20T08:09:09.381Z,43.10
2019-06-20T08:11:39.198Z,43.60
2019-06-20T08:14:09.021Z,44.70
2019-06-20T08:16:39.678Z,43.80
2019-06-20T08:19:09.578Z,43.30
2019-06-20T08:21:39.419Z,42.80
2019-06-20T08:24:09.264Z,42.90
2019-06-20T08:26:39.077Z,42.30
2019-06-20T08:29:20.123Z,43.10
2019-06-20T08:31:40.695Z,42.90
2019-06-20T08:34:10.870Z,42.60
2019-06-20T08:36:40.786Z,42.50
2019-06-20T08:39:10.638Z,42.90
2019-06-20T08:41:40.415Z,43.00
2019-06-20T08:44:10.218Z,43.40
2019-06-20T08:46:40.096Z,43.10
2019-06-20T08:49:10.029Z,43.40
2019-06-20T08:51:40.702Z,42.70
2019-06-20T08:54:10.824Z,42.60
2019-06-20T08:56:40.775Z,41.90
2019-06-20T08:59:23.532Z,41.90
2019-06-20T09:01:42.062Z,41.50
2019-06-20T09:04:11.835Z,40.40
2019-06-20T09:06:41.814Z,40.10
2019-06-20T09:09:11.898Z,39.60
2019-06-20T09:11:41.893Z,39.00
2019-06-20T09:14:12.526Z,39.20
2019-06-20T09:16:42.420Z,39.40
2019-06-20T09:19:12.295Z,39.80
2019-06-20T09:21:42.322Z,40.30
2019-06-20T09:24:12.169Z,40.30
2019-06-20T09:26:41.981Z,41.00
2019-06-20T09:29:11.811Z,41.30
2019-06-20T09:31:42.978Z,42.50
2019-06-20T09:34:12.812Z,42.10
2019-06-20T09:36:42.813Z,42.10
2019-06-20T09:39:12.641Z,42.00
2019-06-20T09:41:42.626Z,41.80
2019-06-20T09:44:12.454Z,42.10
2019-06-20T09:46:42.231Z,40.80
2019-06-20T09:49:12.037Z,39.10
2019-06-20T09:51:41.872Z,38.80
2019-06-20T09:54:11.679Z,38.70
2019-06-20T09:56:41.669Z,38.00
2019-06-20T09:59:26.841Z,37.20
2019-06-20T10:01:43.870Z,37.20
2019-06-20T10:04:14.597Z,37.60
2019-06-20T10:06:45.685Z,37.20
2019-06-20T10:09:15.673Z,37.20
2019-06-20T10:11:46.940Z,36.80
2019-06-20T10:14:18.253Z,37.50
2019-06-20T10:16:51.004Z,37.10
2019-06-20T10:19:20.245Z,36.80
2019-06-20T10:21:51.844Z,36.90
2019-06-20T10:24:22.025Z,36.70
2019-06-20T10:26:51.942Z,37.70
2019-06-20T10:29:22.271Z,37.30
2019-06-20T10:31:53.164Z,36.90
2019-06-20T10:34:24.080Z,37.10
2019-06-20T10:36:53.889Z,37.50
2019-06-20T10:39:23.666Z,36.60
2019-06-20T10:41:53.442Z,36.80
2019-06-20T10:44:23.246Z,36.80
2019-06-20T10:46:53.025Z,37.00
2019-06-20T10:49:22.802Z,37.60
2019-06-20T10:51:52.630Z,38.30
2019-06-20T10:54:22.480Z,37.50
2019-06-20T10:56:52.285Z,38.30
2019-06-20T10:59:23.434Z,37.60
2019-06-20T11:01:53.263Z,38.20
2019-06-20T11:04:23.178Z,38.60
2019-06-20T11:06:53.004Z,39.30
2019-06-20T11:09:22.845Z,39.00
2019-06-20T11:11:52.666Z,39.10
2019-06-20T11:14:22.547Z,38.40
2019-06-20T11:16:52.487Z,37.50
2019-06-20T11:19:22.478Z,37.80
2019-06-20T11:21:52.506Z,37.70
2019-06-20T11:24:22.489Z,38.10
2019-06-20T11:26:52.306Z,38.40
2019-06-20T11:29:22.104Z,38.00
2019-06-20T11:31:52.037Z,38.80
2019-06-20T11:34:21.800Z,38.80
2019-06-20T11:36:51.821Z,38.70
2019-06-20T11:39:21.869Z,39.10
2019-06-20T11:41:51.744Z,38.40
2019-06-20T11:44:21.541Z,39.30
2019-06-20T11:46:51.492Z,38.00
2019-06-20T11:49:21.458Z,38.30
2019-06-20T11:51:51.230Z,38.30
2019-06-20T11:54:21.003Z,38.30
2019-06-20T11:56:50.825Z,38.90
2019-06-20T11:59:21.352Z,38.90
2019-06-20T12:01:51.283Z,39.80
2019-06-20T12:04:21.312Z,39.70
2019-06-20T12:06:51.588Z,39.60
2019-06-20T12:09:21.547Z,39.40
2019-06-20T12:11:51.388Z,38.70
2019-06-20T12:14:21.180Z,38.50
2019-06-20T12:16:50.957Z,38.70
2019-06-20T12:19:20.744Z,38.40
2019-06-20T12:21:50.531Z,38.50
2019-06-20T12:24:21.192Z,38.70
2019-06-20T12:26:51.486Z,38.10
2019-06-20T12:29:21.389Z,37.90
2019-06-20T12:31:52.778Z,37.70
2019-06-20T12:34:22.754Z,37.80
2019-06-20T12:36:52.723Z,37.40
2019-06-20T12:39:22.577Z,38.20
2019-06-20T12:41:52.681Z,38.20
2019-06-20T12:44:22.638Z,37.40
2019-06-20T12:46:52.631Z,37.80
2019-06-20T12:49:24.041Z,38.10
2019-06-20T12:51:55.046Z,38.00
2019-06-20T12:54:24.865Z,37.70
2019-06-20T12:56:54.633Z,36.60
2019-06-20T12:59:24.525Z,36.30
2019-06-20T13:01:54.357Z,35.80
2019-06-20T13:04:24.405Z,35.90
2019-06-20T13:06:54.334Z,36.20
2019-06-20T13:09:24.170Z,36.10
2019-06-20T13:11:54.309Z,35.80
2019-06-20T13:14:24.076Z,36.10
2019-06-20T13:16:53.985Z,36.90
2019-06-20T13:19:23.909Z,36.80
2019-06-20T13:21:53.884Z,36.70
2019-06-20T13:24:24.019Z,36.20
2019-06-20T13:26:53.859Z,36.00
2019-06-20T13:29:23.630Z,36.20
2019-06-20T13:32:03.583Z,37.30
2019-06-20T13:34:25.131Z,35.80
2019-06-20T13:36:55.265Z,36.20
2019-06-20T13:39:25.219Z,35.10
2019-06-20T13:41:55.786Z,35.60
2019-06-20T13:44:25.665Z,36.20
2019-06-20T13:46:55.599Z,35.80
2019-06-20T13:49:25.459Z,35.90
2019-06-20T13:51:55.275Z,36.20
2019-06-20T13:54:25.356Z,36.50
2019-06-20T13:56:56.289Z,36.70
2019-06-20T13:59:26.286Z,36.10
2019-06-20T14:02:06.284Z,35.50
2019-06-20T14:04:27.833Z,35.80
2019-06-20T14:06:58.389Z,35.90
2019-06-20T14:09:28.326Z,35.90
2019-06-20T14:11:58.315Z,35.70
2019-06-20T14:14:28.149Z,36.20
2019-06-20T14:16:57.985Z,36.60
2019-06-20T14:19:28.093Z,37.00
2019-06-20T14:21:58.645Z,36.90
2019-06-20T14:24:28.428Z,36.50
2019-06-20T14:26:59.142Z,37.00
2019-06-20T14:29:28.913Z,37.50
2019-06-20T14:31:58.703Z,37.00
2019-06-20T14:34:28.862Z,36.90
2019-06-20T14:36:58.815Z,37.30
2019-06-20T14:39:28.645Z,36.60
2019-06-20T14:41:58.480Z,36.70
2019-06-20T14:44:28.285Z,36.40
2019-06-20T14:46:59.456Z,36.50
2019-06-20T14:49:29.673Z,36.70
2019-06-20T14:51:59.660Z,37.10
2019-06-20T14:54:29.498Z,37.30
2019-06-20T14:56:59.504Z,37.50
2019-06-20T14:59:29.378Z,37.70
2019-06-20T15:01:59.356Z,38.20
2019-06-20T15:04:29.378Z,38.30
2019-06-20T15:07:00.149Z,38.50
2019-06-20T15:09:30.155Z,38.10
2019-06-20T15:12:00.908Z,38.80
2019-06-20T15:14:30.909Z,38.40
2019-06-20T15:17:00.918Z,38.80
2019-06-20T15:19:30.733Z,38.70
2019-06-20T15:22:01.423Z,39.00
2019-06-20T15:24:31.390Z,39.20
2019-06-20T15:27:01.314Z,39.40
2019-06-20T15:29:31.108Z,39.50
2019-06-20T15:32:00.896Z,39.60
2019-06-20T15:34:30.962Z,39.60
2019-06-20T15:37:00.880Z,39.70
2019-06-20T15:39:30.681Z,40.10
2019-06-20T15:42:00.497Z,40.30
2019-06-20T15:44:30.351Z,41.00
2019-06-20T15:47:00.189Z,40.60
2019-06-20T15:49:29.958Z,40.80
2019-06-20T15:51:59.746Z,41.20
2019-06-20T15:54:29.675Z,41.30
2019-06-20T15:56:59.454Z,41.60
2019-06-20T15:59:29.229Z,42.70
2019-06-20T16:01:59.067Z,43.40
2019-06-20T16:04:28.852Z,44.30
2019-06-20T16:06:58.715Z,45.80
2019-06-20T16:09:28.549Z,46.60
2019-06-20T16:11:58.313Z,46.60
2019-06-20T16:14:28.113Z,47.80
2019-06-20T16:16:57.914Z,47.70
2019-06-20T16:19:27.929Z,48.30
2019-06-20T16:21:57.728Z,48.10
2019-06-20T16:24:27.780Z,47.60
2019-06-20T16:26:57.626Z,47.80
2019-06-20T16:29:27.530Z,48.10
2019-06-20T16:31:57.446Z,48.20
2019-06-20T16:34:27.409Z,48.20
2019-06-20T16:37:09.667Z,48.10
2019-06-20T16:39:29.577Z,48.30
2019-06-20T16:42:00.184Z,48.30
2019-06-20T16:44:30.007Z,48.50
2019-06-20T16:46:59.984Z,48.40
2019-06-20T16:49:29.870Z,48.40
2019-06-20T16:51:59.646Z,48.50
2019-06-20T16:54:29.472Z,48.50
2019-06-20T16:57:01.233Z,48.60
2019-06-20T16:59:31.040Z,48.90
2019-06-20T17:02:00.986Z,48.50
2019-06-20T17:04:30.790Z,48.70
2019-06-20T17:07:00.871Z,48.80
2019-06-20T17:09:31.643Z,48.90
2019-06-20T17:12:02.246Z,48.70
2019-06-20T17:14:32.765Z,48.70
2019-06-20T17:17:02.590Z,48.90
2019-06-20T17:19:33.265Z,48.90
2019-06-20T17:22:03.254Z,49.10
2019-06-20T17:24:33.920Z,49.10
2019-06-20T17:27:03.986Z,49.20
2019-06-20T17:29:33.759Z,49.60
2019-06-20T17:32:03.768Z,49.90
2019-06-20T17:34:33.773Z,50.00
2019-06-20T17:37:03.755Z,50.20
2019-06-20T17:39:33.586Z,50.30
2019-06-20T17:42:03.961Z,50.50
2019-06-20T17:44:33.722Z,50.50
2019-06-20T17:47:03.619Z,50.90
2019-06-20T17:49:33.519Z,51.10
2019-06-20T17:52:03.392Z,51.30
2019-06-20T17:54:33.161Z,51.60
2019-06-20T17:57:03.133Z,51.90
2019-06-20T17:59:33.262Z,51.90
2019-06-20T18:02:03.154Z,52.20
2019-06-20T18:04:33.146Z,52.50
2019-06-20T18:07:02.931Z,52.60
2019-06-20T18:09:32.701Z,52.80
2019-06-20T18:12:02.957Z,53.10
2019-06-20T18:14:34.147Z,53.10
2019-06-20T18:17:04.459Z,53.10
2019-06-20T18:19:34.244Z,53.20
2019-06-20T18:22:04.336Z,53.20
2019-06-20T18:24:35.070Z,53.20
2019-06-20T18:27:06.209Z,53.50
2019-06-20T18:29:36.077Z,53.40
2019-06-20T18:32:06.190Z,53.50
2019-06-20T18:34:36.007Z,53.70
2019-06-20T18:37:05.838Z,53.70
2019-06-20T18:39:35.611Z,53.60
2019-06-20T18:42:05.546Z,53.60
2019-06-20T18:44:35.377Z,53.70
2019-06-20T18:47:05.236Z,53.70
2019-06-20T18:49:35.156Z,53.50
2019-06-20T18:52:04.958Z,53.60
2019-06-20T18:54:34.992Z,53.70
2019-06-20T18:57:05.012Z,54.00
2019-06-20T18:59:34.836Z,54.80
2019-06-20T19:02:07.605Z,55.00
2019-06-20T19:04:47.930Z,54.90
2019-06-20T19:07:09.289Z,54.70
2019-06-20T19:09:39.079Z,55.00
2019-06-20T19:12:08.935Z,55.00
2019-06-20T19:14:38.758Z,55.10
2019-06-20T19:17:08.786Z,54.60
2019-06-20T19:19:38.878Z,55.10
2019-06-20T19:22:09.369Z,55.60
2019-06-20T19:24:39.453Z,55.60
2019-06-20T19:27:09.272Z,55.90
2019-06-20T19:29:39.123Z,56.20
2019-06-20T19:32:09.014Z,56.20
2019-06-20T19:34:39.178Z,56.60
2019-06-20T19:37:08.975Z,56.80
2019-06-20T19:39:38.753Z,56.80
2019-06-20T19:42:08.863Z,57.10
2019-06-20T19:44:38.824Z,57.30
2019-06-20T19:47:08.857Z,57.20
2019-06-20T19:49:38.824Z,57.40
2019-06-20T19:52:09.378Z,57.80
2019-06-20T19:54:39.392Z,58.10
2019-06-20T19:57:09.353Z,58.60
2019-06-20T19:59:39.366Z,59.00
2019-06-20T20:02:09.218Z,59.40
2019-06-20T20:04:39.020Z,60.10
2019-06-20T20:07:09.338Z,60.70
2019-06-20T20:09:39.717Z,61.30
2019-06-20T20:12:09.543Z,61.90
2019-06-20T20:14:40.110Z,62.20
2019-06-20T20:17:22.586Z,62.30
2019-06-20T20:19:52.424Z,62.30
2019-06-20T20:22:22.253Z,62.30
2019-06-20T20:24:52.213Z,62.40
2019-06-20T20:27:22.000Z,62.80
2019-06-20T20:29:51.775Z,62.80
2019-06-20T20:32:21.732Z,62.70
2019-06-20T20:34:51.670Z,62.90
2019-06-20T20:37:22.318Z,63.50
2019-06-20T20:39:52.128Z,63.80
2019-06-20T20:42:22.057Z,63.40
2019-06-20T20:44:52.129Z,63.80
2019-06-20T20:47:21.965Z,63.70
2019-06-20T20:49:51.779Z,63.60
2019-06-20T20:52:21.544Z,63.70
2019-06-20T20:54:51.513Z,63.80
2019-06-20T20:57:21.318Z,64.00
2019-06-20T20:59:51.206Z,63.70
2019-06-20T21:02:21.116Z,64.30
2019-06-20T21:04:50.891Z,64.40
2019-06-20T21:07:20.700Z,64.60
2019-06-20T21:09:50.760Z,64.60
2019-06-20T21:12:20.655Z,64.80
2019-06-20T21:14:50.501Z,65.10
2019-06-20T21:17:20.481Z,65.20
2019-06-20T21:19:50.505Z,65.40
2019-06-20T21:22:20.339Z,65.50
2019-06-20T21:24:50.118Z,65.60
2019-06-20T21:27:20.052Z,65.60
2019-06-20T21:29:49.861Z,65.80
2019-06-20T21:32:19.738Z,65.80
2019-06-20T21:34:49.722Z,66.00
2019-06-20T21:37:19.578Z,66.10
2019-06-20T21:39:49.416Z,66.30
2019-06-20T21:42:19.224Z,66.40
2019-06-20T21:44:49.151Z,66.50
2019-06-20T21:47:19.063Z,66.60
2019-06-20T21:49:48.922Z,66.70
2019-06-20T21:52:18.729Z,66.70
2019-06-20T21:54:48.598Z,66.80
2019-06-20T21:57:18.526Z,67.00
2019-06-20T21:59:48.382Z,67.00
2019-06-20T22:02:19.242Z,67.00
2019-06-20T22:04:54.542Z,67.20
2019-06-20T22:07:20.853Z,67.30
2019-06-20T22:09:51.592Z,67.30
2019-06-20T22:12:21.481Z,68.30
2019-06-20T22:14:51.368Z,67.60
2019-06-20T22:17:21.169Z,67.80
2019-06-20T22:19:50.999Z,67.90
2019-06-20T22:22:20.815Z,67.90
2019-06-20T22:24:50.751Z,67.90
2019-06-20T22:27:20.713Z,67.90
2019-06-20T22:29:50.533Z,68.00
2019-06-20T22:32:20.393Z,68.00
2019-06-20T22:34:50.161Z,68.20
2019-06-20T22:37:20.085Z,68.40
2019-06-20T22:39:49.984Z,68.50
2019-06-20T22:42:20.049Z,68.80
2019-06-20T22:44:49.862Z,68.90
2019-06-20T22:47:19.797Z,69.20
2019-06-20T22:49:49.646Z,69.30
2019-06-20T22:52:19.461Z,69.50
2019-06-20T22:54:49.338Z,69.50
2019-06-20T22:57:19.170Z,69.60
2019-06-20T22:59:48.987Z,69.50
2019-06-20T23:02:18.806Z,69.70
2019-06-20T23:04:48.714Z,69.80
2019-06-20T23:07:18.525Z,69.70
2019-06-20T23:09:48.442Z,69.70
2019-06-20T23:12:18.407Z,69.80
2019-06-20T23:14:48.397Z,69.80
2019-06-20T23:17:18.173Z,69.90
2019-06-20T23:19:47.968Z,69.90
2019-06-20T23:22:17.783Z,69.90
2019-06-20T23:24:47.613Z,69.90
2019-06-20T23:27:17.432Z,69.90
2019-06-20T23:29:47.197Z,69.80
2019-06-20T23:32:17.099Z,69.60
2019-06-20T23:34:46.958Z,69.10
2019-06-20T23:37:16.838Z,69.40
2019-06-20T23:39:46.609Z,69.40
2019-06-20T23:42:16.406Z,69.30
2019-06-20T23:44:46.229Z,69.30
2019-06-20T23:47:15.993Z,69.30
2019-06-20T23:49:46.064Z,69.20
2019-06-20T23:52:20.232Z,69.20
2019-06-20T23:54:50.861Z,69.30
2019-06-20T23:57:21.615Z,69.40
2019-06-20T23:59:51.463Z,69.50
